createdAt,value
2022-08-28T00:00:30.592Z,3.33
2022-08-28T00:02:59.086Z,3.22
2022-08-28T00:05:29.836Z,3.20
2022-08-28T00:07:59.108Z,3.13
2022-08-28T00:10:27.390Z,3.13
2022-08-28T00:12:57.467Z,3.30
2022-08-28T00:15:29.873Z,3.20
2022-08-28T00:17:57.457Z,3.25
2022-08-28T00:20:26.770Z,3.22
2022-08-28T00:22:55.616Z,3.50
2022-08-28T00:25:25.544Z,3.30
2022-08-28T00:27:56.832Z,3.30
2022-08-28T00:30:31.794Z,3.05
2022-08-28T00:33:21.368Z,3.47
2022-08-28T00:35:49.904Z,3.25
2022-08-28T00:38:21.205Z,3.20
2022-08-28T00:40:52.337Z,3.00
2022-08-28T00:43:25.533Z,3.30
2022-08-28T00:45:53.374Z,3.10
2022-08-28T00:48:21.144Z,3.05
2022-08-28T00:51:08.028Z,3.05
2022-08-28T00:53:35.547Z,3.13
2022-08-28T00:56:12.823Z,3.05
2022-08-28T00:58:45.010Z,3.17
2022-08-28T01:01:13.031Z,3.30
2022-08-28T01:03:41.285Z,3.30
2022-08-28T01:06:08.914Z,2.88
2022-08-28T01:08:38.998Z,3.20
2022-08-28T01:11:07.934Z,2.97
2022-08-28T01:13:39.602Z,3.13
2022-08-28T01:16:08.373Z,3.30
2022-08-28T01:18:35.880Z,3.03
2022-08-28T01:21:43.411Z,2.80
2022-08-28T01:24:16.092Z,2.85
2022-08-28T01:26:44.433Z,2.88
2022-08-28T01:29:12.527Z,3.20
2022-08-28T01:31:42.901Z,3.22
2022-08-28T01:34:13.098Z,3.22
2022-08-28T01:36:41.295Z,3.13
2022-08-28T01:39:15.888Z,2.97
2022-08-28T01:41:48.381Z,3.20
2022-08-28T01:44:18.155Z,2.85
2022-08-28T01:46:46.562Z,2.83
2022-08-28T01:49:14.054Z,2.92
2022-08-28T01:51:43.040Z,3.00
2022-08-28T01:54:11.960Z,2.70
2022-08-28T01:56:44.608Z,3.00
2022-08-28T01:59:12.881Z,3.20
2022-08-28T02:01:42.966Z,2.85
2022-08-28T02:04:11.123Z,3.15
2022-08-28T02:06:38.529Z,3.15
2022-08-28T02:09:07.050Z,3.08
2022-08-28T02:11:46.737Z,3.20
2022-08-28T02:14:14.957Z,3.10
2022-08-28T02:16:43.454Z,2.85
2022-08-28T02:19:12.164Z,2.85
2022-08-28T02:21:40.145Z,3.05
2022-08-28T02:24:08.705Z,3.08
2022-08-28T02:26:36.166Z,2.95
2022-08-28T02:29:04.265Z,3.03
2022-08-28T02:31:32.116Z,3.15
2022-08-28T02:33:59.589Z,2.90
2022-08-28T02:36:27.000Z,2.75
2022-08-28T02:38:57.722Z,3.20
2022-08-28T02:41:28.395Z,2.97
2022-08-28T02:43:56.372Z,2.40
2022-08-28T02:46:25.443Z,3.05
2022-08-28T02:48:54.018Z,3.33
2022-08-28T02:51:22.138Z,3.17
2022-08-28T02:53:50.465Z,3.15
2022-08-28T02:56:18.321Z,3.22
2022-08-28T02:58:45.787Z,3.83
2022-08-28T03:01:15.068Z,3.30
2022-08-28T03:03:43.126Z,3.10
2022-08-28T03:06:15.409Z,3.17
2022-08-28T03:08:45.249Z,3.47
2022-08-28T03:11:13.141Z,3.45
2022-08-28T03:13:41.949Z,3.78
2022-08-28T03:16:09.905Z,3.83
2022-08-28T03:18:37.465Z,3.45
2022-08-28T03:21:05.877Z,3.65
2022-08-28T03:23:33.277Z,3.50
2022-08-28T03:26:09.713Z,3.30
2022-08-28T03:28:40.917Z,3.53
2022-08-28T03:31:12.426Z,3.95
2022-08-28T03:33:41.963Z,3.20
2022-08-28T03:36:12.889Z,3.40
2022-08-28T03:38:41.924Z,3.25
2022-08-28T03:41:14.223Z,3.78
2022-08-28T03:43:41.955Z,3.40
2022-08-28T03:46:13.749Z,3.40
2022-08-28T03:48:44.820Z,3.40
2022-08-28T03:51:15.902Z,3.55
2022-08-28T03:53:45.446Z,3.75
2022-08-28T03:56:16.850Z,3.40
2022-08-28T03:58:44.827Z,3.53
2022-08-28T04:01:12.793Z,3.58
2022-08-28T04:03:43.552Z,3.90
2022-08-28T04:06:18.919Z,3.30
2022-08-28T04:08:54.814Z,3.60
2022-08-28T04:11:30.410Z,3.88
2022-08-28T04:13:58.236Z,3.72
2022-08-28T04:17:02.048Z,3.50
2022-08-28T04:19:30.381Z,4.28
2022-08-28T04:21:58.064Z,4.07
2022-08-28T04:24:25.928Z,3.95
2022-08-28T04:26:57.168Z,3.60
2022-08-28T04:29:24.992Z,3.83
2022-08-28T04:31:57.292Z,3.70
2022-08-28T04:34:29.701Z,3.47
2022-08-28T04:36:58.558Z,3.30
2022-08-28T04:39:33.113Z,3.20
2022-08-28T04:42:01.336Z,3.40
2022-08-28T04:44:29.129Z,3.40
2022-08-28T04:46:59.098Z,3.40
2022-08-28T04:49:29.196Z,3.40
2022-08-28T04:51:59.916Z,3.90
2022-08-28T04:54:30.335Z,3.80
2022-08-28T04:56:58.318Z,3.90
2022-08-28T04:59:32.699Z,3.83
2022-08-28T05:02:02.784Z,3.42
2022-08-28T05:04:35.818Z,3.60
2022-08-28T05:07:58.208Z,3.15
2022-08-28T05:10:26.549Z,3.70
2022-08-28T05:12:54.908Z,3.55
2022-08-28T05:15:29.370Z,3.40
2022-08-28T05:17:57.130Z,3.45
2022-08-28T05:20:36.621Z,3.58
2022-08-28T05:23:08.269Z,3.47
2022-08-28T05:25:39.844Z,3.63
2022-08-28T05:28:32.605Z,3.35
2022-08-28T05:31:12.768Z,3.50
2022-08-28T05:33:42.863Z,3.60
2022-08-28T05:36:19.175Z,3.70
2022-08-28T05:38:53.367Z,3.70
2022-08-28T05:41:30.194Z,3.53
2022-08-28T05:44:09.628Z,3.90
2022-08-28T05:46:43.226Z,3.85
2022-08-28T05:49:14.617Z,3.60
2022-08-28T05:51:42.930Z,3.17
2022-08-28T05:55:02.530Z,3.78
2022-08-28T05:57:37.627Z,3.60
2022-08-28T06:00:13.489Z,4.00
2022-08-28T06:02:44.521Z,3.50
2022-08-28T06:05:17.195Z,3.63
2022-08-28T06:07:50.360Z,3.42
2022-08-28T06:13:34.981Z,3.67
2022-08-28T06:16:12.946Z,3.57
2022-08-28T06:18:42.796Z,4.45
2022-08-28T06:21:12.873Z,3.90
2022-08-28T06:23:42.814Z,3.63
2022-08-28T06:26:14.434Z,3.42
2022-08-28T06:28:47.171Z,3.70
2022-08-28T06:35:36.483Z,3.80
2022-08-28T06:38:04.470Z,3.50
2022-08-28T06:40:57.831Z,3.50
2022-08-28T06:43:28.807Z,3.10
2022-08-28T06:46:03.331Z,2.40
2022-08-28T06:48:39.482Z,2.45
2022-08-28T06:51:16.198Z,2.40
2022-08-28T06:54:34.820Z,2.10
2022-08-28T06:57:14.115Z,2.28
2022-08-28T06:59:58.098Z,1.80
2022-08-28T07:02:33.643Z,1.98
2022-08-28T07:05:12.288Z,1.83
2022-08-28T07:07:42.238Z,2.30
2022-08-28T07:10:16.344Z,2.60
2022-08-28T07:12:48.658Z,2.90
2022-08-28T07:15:19.531Z,3.00
2022-08-28T07:17:49.618Z,3.10
2022-08-28T07:21:33.078Z,3.50
2022-08-28T07:28:08.202Z,2.67
2022-08-28T07:30:36.052Z,3.33
2022-08-28T07:33:11.013Z,3.63
2022-08-28T07:35:44.224Z,3.88
2022-08-28T07:38:15.464Z,3.20
2022-08-28T07:40:46.270Z,3.63
2022-08-28T07:43:35.483Z,3.70
2022-08-28T07:46:10.798Z,3.05
2022-08-28T07:48:48.356Z,2.85
2022-08-28T07:51:23.497Z,2.97
2022-08-28T07:53:59.393Z,3.00
2022-08-28T07:56:30.237Z,2.53
2022-08-28T07:59:06.005Z,2.70
2022-08-28T08:01:44.663Z,2.60
2022-08-28T08:04:17.570Z,2.80
2022-08-28T08:06:46.967Z,2.78
2022-08-28T08:09:22.258Z,3.40
2022-08-28T08:11:56.298Z,2.63
2022-08-28T08:14:25.734Z,3.22
2022-08-28T08:17:02.407Z,3.17
2022-08-28T08:19:35.341Z,3.30
2022-08-28T08:22:03.381Z,3.38
2022-08-28T08:24:30.989Z,3.15
2022-08-28T08:27:11.517Z,2.58
2022-08-28T08:29:39.391Z,3.05
2022-08-28T08:32:12.639Z,2.80
2022-08-28T08:35:36.593Z,2.90
2022-08-28T08:38:06.256Z,3.15
2022-08-28T08:40:36.515Z,3.22
2022-08-28T08:43:08.893Z,3.13
2022-08-28T08:46:14.916Z,2.30
2022-08-28T08:48:52.268Z,2.47
2022-08-28T08:55:32.952Z,2.28
2022-08-28T08:58:55.350Z,2.75
2022-08-28T09:01:50.975Z,2.53
2022-08-28T09:04:34.105Z,2.53
2022-08-28T09:07:08.104Z,2.33
2022-08-28T09:09:41.086Z,2.40
2022-08-28T09:12:44.383Z,2.92
2022-08-28T09:15:27.744Z,2.47
2022-08-28T09:18:13.823Z,2.50
2022-08-28T09:20:52.378Z,2.40
2022-08-28T09:23:24.727Z,2.72
2022-08-28T09:26:16.690Z,3.00
2022-08-28T09:29:05.396Z,2.60
2022-08-28T09:32:27.243Z,2.53
2022-08-28T09:35:24.948Z,3.10
2022-08-28T09:37:53.740Z,3.00
2022-08-28T09:40:52.478Z,2.80
2022-08-28T09:44:23.370Z,3.35
2022-08-28T09:46:56.398Z,3.45
2022-08-28T09:49:29.476Z,3.17
2022-08-28T09:52:25.358Z,2.83
2022-08-28T09:59:39.812Z,3.50
2022-08-28T10:02:45.624Z,3.58
2022-08-28T10:05:16.802Z,3.60
2022-08-28T10:08:21.349Z,4.28
2022-08-28T10:10:56.845Z,5.07
2022-08-28T10:18:37.947Z,4.63
2022-08-28T10:47:22.226Z,4.40
2022-08-28T10:49:53.686Z,4.05
2022-08-28T10:52:28.801Z,3.88
2022-08-28T10:56:03.268Z,3.90
2022-08-28T10:59:16.398Z,3.85
2022-08-28T11:06:37.224Z,3.40
2022-08-28T11:09:26.917Z,3.47
2022-08-28T11:35:26.154Z,4.65
2022-08-28T11:37:58.284Z,4.43
2022-08-28T11:40:28.639Z,4.28
2022-08-28T12:07:00.686Z,3.90
2022-08-28T12:09:40.320Z,4.00
2022-08-28T12:27:03.708Z,3.53
2022-08-28T12:29:43.982Z,3.78
2022-08-28T12:32:40.295Z,3.78
2022-08-28T12:35:19.320Z,4.18
2022-08-28T12:42:55.055Z,3.60
2022-08-28T12:45:52.164Z,3.63
2022-08-28T12:53:02.803Z,3.78
2022-08-28T13:14:07.394Z,3.67
2022-08-28T13:16:53.221Z,3.80
2022-08-28T13:19:36.784Z,4.10
2022-08-28T13:22:34.719Z,3.90
2022-08-28T13:29:24.541Z,3.38
2022-08-28T13:45:36.311Z,3.90
2022-08-28T13:50:34.213Z,4.57
2022-08-28T13:54:42.553Z,3.35
2022-08-28T14:11:15.785Z,3.35
2022-08-28T14:14:13.113Z,3.45
2022-08-28T14:16:41.221Z,3.55
2022-08-28T14:19:37.180Z,3.80
2022-08-28T14:26:39.130Z,3.60
2022-08-28T14:29:42.781Z,3.28
2022-08-28T14:32:10.715Z,3.50
2022-08-28T14:35:28.474Z,3.47
2022-08-28T14:48:20.191Z,3.22
2022-08-28T14:50:48.508Z,3.50
2022-08-28T15:02:31.453Z,3.47
2022-08-28T15:23:57.375Z,3.08
2022-08-28T15:27:09.686Z,3.50
2022-08-28T15:34:27.476Z,3.60
2022-08-28T15:36:56.699Z,3.13
2022-08-28T15:39:46.222Z,3.08
2022-08-28T15:42:14.994Z,3.50
2022-08-28T15:49:23.919Z,3.13
2022-08-28T16:10:14.627Z,3.42
2022-08-28T16:12:42.684Z,3.67
2022-08-28T16:15:12.310Z,2.95
2022-08-28T16:17:40.049Z,3.53
2022-08-28T16:20:12.345Z,3.15
2022-08-28T16:40:56.790Z,3.70
2022-08-28T17:02:01.607Z,3.72
2022-08-28T17:04:29.354Z,3.85
2022-08-28T17:07:06.704Z,3.35
2022-08-28T17:09:57.884Z,4.07
2022-08-28T17:12:50.685Z,3.72
2022-08-28T17:16:13.530Z,3.90
2022-08-28T17:23:18.201Z,3.50
2022-08-28T17:26:06.269Z,3.50
2022-08-28T17:33:07.844Z,3.65
2022-08-28T17:35:40.299Z,4.00
2022-08-28T17:38:17.343Z,3.70
2022-08-28T17:54:30.522Z,3.90
2022-08-28T17:58:13.687Z,4.22
2022-08-28T18:09:53.145Z,4.00
2022-08-28T18:12:23.657Z,3.63
2022-08-28T18:14:51.353Z,3.45
2022-08-28T18:35:49.591Z,4.57
2022-08-28T18:55:45.870Z,4.97
2022-08-28T19:08:14.265Z,5.60
2022-08-28T19:10:42.995Z,5.53
2022-08-28T19:17:51.154Z,6.40
2022-08-28T19:20:20.758Z,5.93
2022-08-28T19:22:48.964Z,5.85
2022-08-28T19:25:27.474Z,5.40
2022-08-28T19:27:59.252Z,5.95
2022-08-28T19:30:33.394Z,5.38
2022-08-28T19:33:03.955Z,5.47
2022-08-28T19:35:34.794Z,6.07
2022-08-28T19:38:05.360Z,4.85
2022-08-28T19:40:33.758Z,5.00
2022-08-28T19:43:01.804Z,4.80
2022-08-28T20:00:05.050Z,5.13
2022-08-28T20:02:32.769Z,5.65
2022-08-28T20:09:36.147Z,5.68
2022-08-28T20:12:04.365Z,6.00
2022-08-28T20:14:31.992Z,6.05
2022-08-28T20:30:47.164Z,4.03
2022-08-28T20:33:17.967Z,3.20
2022-08-28T20:35:45.924Z,3.20
2022-08-28T20:56:54.016Z,2.85
2022-08-28T21:18:01.941Z,1.33
2022-08-28T21:34:38.010Z,0.90
2022-08-28T21:37:06.447Z,0.70
2022-08-28T21:44:52.040Z,0.70
2022-08-28T21:48:48.465Z,0.70
2022-08-28T21:56:24.828Z,0.63
2022-08-28T21:58:56.627Z,0.60
2022-08-28T22:10:40.593Z,0.82
2022-08-28T22:13:58.375Z,0.80
2022-08-28T22:21:45.132Z,0.90
2022-08-28T22:24:15.345Z,0.75
2022-08-28T22:26:46.329Z,0.80
2022-08-28T22:29:14.035Z,0.68
2022-08-28T22:31:46.004Z,0.70
2022-08-28T22:34:14.796Z,0.70
2022-08-28T22:36:45.383Z,0.70
2022-08-28T22:39:13.100Z,0.77
2022-08-28T22:41:43.374Z,0.90
2022-08-28T22:57:56.189Z,0.88
2022-08-28T23:00:28.297Z,0.90
2022-08-28T23:07:46.634Z,1.00
2022-08-28T23:19:26.350Z,1.10
2022-08-28T23:22:43.854Z,1.30
2022-08-28T23:29:47.706Z,1.20
2022-08-28T23:32:21.831Z,1.60
2022-08-28T23:34:49.632Z,1.40
2022-08-28T23:37:23.918Z,1.25
2022-08-28T23:39:51.717Z,1.50
